Time;durP1;ratioP1;P1;durP2;ratioP2;P2;SDS_P1;SDS_P2;PMS_P1;PMS_P2;Temp;Humidity;BMP_temperature;BMP_pressure;BME280_temperature;BME280_humidity;BME280_pressure;Samples;Min_cycle;Max_cycle;Signal;HPM_P1;HPM_P2
2024/02/09 00:01:20;;;;;;;18.95;10.40;;;;;;;4.73;86.44;92426.97;5072217;28;20063;-73
2024/02/09 00:03:47;;;;;;;16.83;9.38;;;;;;;4.80;86.08;92432.06;5070717;28;20040;-73
2024/02/09 00:06:14;;;;;;;12.15;8.07;;;;;;;4.74;86.43;92422.66;5072185;28;20488;-73
2024/02/09 00:08:41;;;;;;;13.80;7.60;;;;;;;4.76;87.52;92428.34;5071718;28;20060;-73
2024/02/09 00:11:11;;;;;;;12.88;7.53;;;;;;;4.79;88.00;92427.97;5071716;28;20044;-73
2024/02/09 00:13:42;;;;;;;15.07;8.27;;;;;;;4.79;88.91;92426.22;5072919;28;20094;-73
2024/02/09 00:16:11;;;;;;;15.93;9.38;;;;;;;4.80;88.53;92426.97;5074131;28;20412;-73
2024/02/09 00:18:39;;;;;;;13.60;7.10;;;;;;;4.80;87.70;92427.78;5072136;28;20040;-73
2024/02/09 00:21:07;;;;;;;12.57;8.73;;;;;;;4.75;89.49;92426.75;5072972;28;20111;-73
2024/02/09 00:23:34;;;;;;;16.52;10.75;;;;;;;4.75;89.00;92426.75;5069163;28;20350;-73
2024/02/09 00:26:02;;;;;;;17.88;10.32;;;;;;;4.57;90.65;92432.41;5073002;28;20056;-73
2024/02/09 00:28:30;;;;;;;20.80;12.13;;;;;;;4.48;90.71;92426.69;5070446;28;20052;-73
2024/02/09 00:30:57;;;;;;;17.85;10.25;;;;;;;4.47;91.58;92433.56;5071057;28;20938;-73
2024/02/09 00:33:25;;;;;;;18.98;9.95;;;;;;;4.49;91.43;92423.97;5071313;28;20040;-73
2024/02/09 00:35:53;;;;;;;18.35;10.55;;;;;;;4.42;91.82;92435.88;5071793;28;20056;-73
2024/02/09 00:38:20;;;;;;;19.88;10.82;;;;;;;4.48;90.86;92436.88;5077073;28;20048;-73
2024/02/09 00:40:48;;;;;;;17.80;11.15;;;;;;;4.43;90.78;92429.06;5068420;28;20448;-73
2024/02/09 00:43:15;;;;;;;17.52;9.85;;;;;;;4.39;90.89;92434.50;5072065;28;20063;-73
2024/02/09 00:45:42;;;;;;;21.75;10.77;;;;;;;4.28;91.70;92429.97;5074579;28;20149;-73
2024/02/09 00:48:09;;;;;;;15.60;9.60;;;;;;;4.16;92.37;92426.41;5068319;28;20052;-73
2024/02/09 00:50:37;;;;;;;18.05;10.68;;;;;;;4.19;92.45;92429.34;5072145;28;20160;-73
2024/02/09 00:53:05;;;;;;;18.15;11.27;;;;;;;4.08;94.83;92424.81;5073814;28;20044;-73
2024/02/09 00:55:32;;;;;;;17.88;10.23;;;;;;;3.99;94.32;92422.41;5071450;28;20036;-73
2024/02/09 00:57:59;;;;;;;20.08;10.52;;;;;;;4.05;94.36;92430.25;5081827;28;20055;-73
2024/02/09 01:00:30;;;;;;;20.45;10.73;;;;;;;4.09;93.50;92434.00;5069681;28;20053;-73
2024/02/09 01:02:57;;;;;;;14.57;8.95;;;;;;;4.18;92.25;92427.78;5070210;28;20109;-73
2024/02/09 01:05:24;;;;;;;16.55;9.50;;;;;;;4.23;92.39;92433.09;5072219;28;20045;-74
2024/02/09 01:07:53;;;;;;;14.95;9.30;;;;;;;4.34;90.77;92418.25;5069443;28;20508;-74
2024/02/09 01:10:20;;;;;;;16.05;8.45;;;;;;;4.41;90.19;92432.56;5070966;28;20053;-73
2024/02/09 02:45:58;;;;;;;56.53;31.67;;;;;;;3.13;100.00;92448.81;5075184;28;20447;-75
2024/02/09 03:05:00;;;;;;;44.58;26.42;;;;;;;3.24;99.45;92457.72;5076629;28;20051;-74
2024/02/09 03:07:27;;;;;;;51.28;27.95;;;;;;;3.02;100.00;92463.56;5080603;28;20392;-74
2024/02/09 03:09:54;;;;;;;60.45;32.47;;;;;;;3.08;100.00;92457.00;5078727;28;20048;-74
2024/02/09 03:12:21;;;;;;;57.13;30.58;;;;;;;3.17;100.00;92463.53;5074140;28;20443;-74
2024/02/09 03:14:48;;;;;;;56.88;30.65;;;;;;;3.25;98.94;92459.28;5070229;28;20050;-74
2024/02/09 03:17:16;;;;;;;51.70;26.48;;;;;;;3.17;98.81;92437.34;5074156;28;20044;-74
2024/02/09 03:19:43;;;;;;;44.38;24.80;;;;;;;3.22;97.22;92445.19;5081170;28;20046;-74
2024/02/09 03:22:10;;;;;;;44.05;23.88;;;;;;;3.29;97.76;92455.41;5070792;28;20045;-74
2024/02/09 03:24:39;;;;;;;43.90;22.77;;;;;;;3.33;96.83;92465.00;5072864;28;20057;-74
2024/02/09 03:27:08;;;;;;;45.92;26.63;;;;;;;3.41;95.41;92465.84;5073082;28;20122;-75
2024/02/09 03:29:36;;;;;;;43.25;26.02;;;;;;;3.39;95.48;92455.09;5073163;28;20412;-75
2024/02/09 03:32:03;;;;;;;37.03;21.50;;;;;;;3.44;95.70;92461.19;5075144;28;20138;-76
2024/02/09 03:34:31;;;;;;;37.85;20.55;;;;;;;3.45;94.88;92462.75;5071446;28;20047;-76
2024/02/09 03:36:58;;;;;;;34.45;20.00;;;;;;;3.57;93.76;92464.78;5075188;28;20055;-75
2024/02/09 03:39:26;;;;;;;29.23;17.90;;;;;;;3.57;94.22;92468.09;5078126;28;20052;-76
2024/02/09 03:41:53;;;;;;;31.85;20.75;;;;;;;3.58;94.05;92477.31;5072886;28;20105;-76
2024/02/09 03:44:20;;;;;;;35.95;20.08;;;;;;;3.46;94.39;92478.75;5083888;28;20076;-76
2024/02/09 03:46:47;;;;;;;32.83;20.65;;;;;;;3.41;94.29;92469.16;5075594;28;20040;-76
2024/02/09 03:49:14;;;;;;;38.25;20.77;;;;;;;3.48;95.17;92492.84;5070638;28;20397;-76
2024/02/09 03:51:42;;;;;;;40.80;23.17;;;;;;;3.34;94.75;92484.34;5074298;28;20046;-76
2024/02/09 03:54:13;;;;;;;47.00;27.13;;;;;;;3.07;98.00;92485.88;5071938;28;20055;-76
2024/02/09 03:56:40;;;;;;;48.38;27.67;;;;;;;3.11;97.98;92484.56;5069607;28;20044;-76
2024/02/09 03:59:07;;;;;;;55.15;29.77;;;;;;;3.19;98.62;92496.31;5074027;28;20076;-75
2024/02/09 04:01:34;;;;;;;58.22;30.45;;;;;;;3.11;98.59;92499.78;5073133;28;20451;-75
2024/02/09 04:04:01;;;;;;;61.28;31.10;;;;;;;2.78;100.00;92506.09;5070213;28;20090;-74
2024/02/09 04:06:29;;;;;;;59.13;32.10;;;;;;;2.37;100.00;92509.91;5073631;28;20493;-74
2024/02/09 04:08:57;;;;;;;58.35;31.42;;;;;;;2.46;100.00;92509.84;5070861;28;20056;-75
2024/02/09 04:11:25;;;;;;;58.00;31.20;;;;;;;2.39;100.00;92509.75;5073116;28;20060;-75
2024/02/09 04:13:52;;;;;;;51.08;28.88;;;;;;;2.64;100.00;92512.00;5073667;28;20052;-75
2024/02/09 04:16:19;;;;;;;48.80;26.80;;;;;;;2.81;100.00;92510.00;5068391;28;20080;-75
2024/02/09 04:18:47;;;;;;;44.22;25.05;;;;;;;2.90;100.00;92510.69;5073425;28;20561;-75
2024/02/09 04:21:15;;;;;;;218.05;74.70;;;;;;;2.89;100.00;92515.00;5070387;28;20563;-75
2024/02/09 04:23:42;;;;;;;46.50;25.88;;;;;;;2.59;100.00;92530.25;5077016;28;20136;-75
2024/02/09 04:26:12;;;;;;;47.63;26.02;;;;;;;2.48;100.00;92528.97;5072308;28;20057;-75
2024/02/09 04:28:39;;;;;;;45.88;28.58;;;;;;;2.02;100.00;92532.47;5072063;28;20055;-75
2024/02/09 04:31:13;;;;;;;51.58;30.17;;;;;;;2.07;100.00;92531.94;5072528;28;20519;-74
2024/02/09 04:33:41;;;;;;;53.28;31.35;;;;;;;2.28;100.00;92526.19;5069803;28;20048;-75
2024/02/09 04:36:09;;;;;;;52.17;27.10;;;;;;;1.89;100.00;92527.22;5068668;28;20045;-75
2024/02/09 04:38:40;;;;;;;59.65;34.22;;;;;;;1.84;100.00;92528.53;5077039;28;20044;-75
2024/02/09 04:41:08;;;;;;;55.58;34.75;;;;;;;1.86;100.00;92535.97;5070174;28;20182;-75
2024/02/09 04:43:37;;;;;;;58.58;33.63;;;;;;;1.59;100.00;92522.91;5070294;28;20048;-74
2024/02/09 04:46:04;;;;;;;53.45;31.70;;;;;;;1.38;100.00;92547.09;5070784;28;20049;-75
2024/02/09 04:48:31;;;;;;;53.75;32.80;;;;;;;1.18;100.00;92534.13;5074300;28;20820;-74
2024/02/09 04:50:57;;;;;;;51.70;32.35;;;;;;;1.29;100.00;92545.59;5068525;28;20040;-74
2024/02/09 04:53:24;;;;;;;53.60;31.30;;;;;;;1.39;100.00;92543.63;5077679;28;20036;-74
2024/02/09 04:55:51;;;;;;;57.20;33.08;;;;;;;1.37;100.00;92553.13;5068900;28;20062;-74
2024/02/09 04:58:18;;;;;;;53.10;33.08;;;;;;;1.62;100.00;92549.63;5071605;28;20052;-74
2024/02/09 05:00:49;;;;;;;53.28;32.22;;;;;;;1.78;100.00;92539.34;5077942;28;20051;-75
2024/02/09 05:03:17;;;;;;;64.20;36.75;;;;;;;1.82;100.00;92530.47;5075509;28;20052;-75
2024/02/09 05:05:45;;;;;;;85.10;46.50;;;;;;;1.85;100.00;92525.03;5077242;28;20138;-74
2024/02/09 05:08:12;;;;;;;98.40;47.30;;;;;;;1.75;100.00;92500.94;5073575;28;20048;-76
2024/02/09 05:10:39;;;;;;;66.00;37.47;;;;;;;2.11;100.00;92541.56;5069854;28;20041;-76
2024/02/09 05:13:07;;;;;;;54.47;31.35;;;;;;;1.93;100.00;92516.56;5072849;28;20075;-77
2024/02/09 05:15:35;;;;;;;55.47;33.13;;;;;;;2.01;100.00;92543.56;5072547;28;20123;-77
2024/02/09 05:18:04;;;;;;;82.00;48.55;;;;;;;2.09;100.00;92546.00;5071272;28;20727;-77
2024/02/09 05:20:31;;;;;;;59.92;33.75;;;;;;;1.94;100.00;92547.78;5070471;28;20044;-75
2024/02/09 05:22:58;;;;;;;68.25;42.30;;;;;;;1.89;100.00;92545.72;5071469;28;20119;-74
2024/02/09 05:25:24;;;;;;;57.15;33.45;;;;;;;1.80;100.00;92534.91;5081389;28;20492;-75
2024/02/09 05:27:51;;;;;;;74.25;45.35;;;;;;;1.85;100.00;92526.78;5068811;28;20055;-75
2024/02/09 05:30:18;;;;;;;83.65;44.95;;;;;;;1.85;100.00;92509.06;5069965;28;20050;-75
2024/02/09 05:32:46;;;;;;;86.63;50.72;;;;;;;2.00;100.00;92511.59;5067659;28;20048;-75
2024/02/09 05:35:14;;;;;;;76.55;46.60;;;;;;;2.14;100.00;92518.41;5070392;28;20040;-75
2024/02/09 05:37:41;;;;;;;89.97;49.13;;;;;;;2.15;100.00;92514.13;5067642;28;20052;-75
2024/02/09 05:40:17;;;;;;;90.00;49.58;;;;;;;2.30;100.00;92511.59;5071179;28;20054;-75
2024/02/09 05:42:44;;;;;;;111.10;57.28;;;;;;;2.35;100.00;92516.91;5071276;28;20068;-75
2024/02/09 05:45:11;;;;;;;86.07;48.28;;;;;;;2.39;100.00;92517.34;5075504;28;20040;-75
2024/02/09 05:47:38;;;;;;;85.07;47.83;;;;;;;2.25;100.00;92508.78;5074633;28;20046;-75
2024/02/09 05:50:06;;;;;;;86.78;45.97;;;;;;;2.33;100.00;92508.72;5071620;28;20052;-75
2024/02/09 05:52:35;;;;;;;98.05;51.55;;;;;;;2.26;100.00;92508.63;5074476;28;20120;-75
2024/02/09 05:55:02;;;;;;;97.90;48.55;;;;;;;2.22;100.00;92501.56;5076395;28;20044;-75
2024/02/09 05:57:29;;;;;;;138.43;59.85;;;;;;;1.99;100.00;92477.88;5068460;28;20053;-75
2024/02/09 05:59:56;;;;;;;71.38;41.08;;;;;;;2.16;100.00;92499.72;5071712;28;20051;-75
2024/02/09 06:02:22;;;;;;;79.95;40.53;;;;;;;1.99;100.00;92479.66;5070565;28;20052;-75
2024/02/09 06:04:50;;;;;;;65.00;38.40;;;;;;;2.23;100.00;92485.38;5072658;28;20812;-75
2024/02/09 06:07:17;;;;;;;53.55;32.20;;;;;;;2.45;100.00;92503.97;5072593;28;20055;-75
2024/02/09 06:09:46;;;;;;;40.10;24.05;;;;;;;2.58;100.00;92503.34;5078382;28;20052;-75
2024/02/09 06:12:13;;;;;;;35.08;23.40;;;;;;;2.64;100.00;92491.72;5074177;28;20052;-75
2024/02/09 06:14:40;;;;;;;37.50;21.80;;;;;;;2.79;100.00;92505.13;5067286;28;20044;-76
2024/02/09 06:17:08;;;;;;;40.55;22.35;;;;;;;2.96;100.00;92511.72;5068537;28;20066;-75
2024/02/09 06:19:35;;;;;;;69.70;40.58;;;;;;;2.97;100.00;92515.84;5070895;28;20041;-75
2024/02/09 06:22:04;;;;;;;72.30;41.35;;;;;;;2.63;100.00;92521.34;5069830;28;20067;-75
2024/02/09 06:24:31;;;;;;;45.33;27.63;;;;;;;2.86;100.00;92517.09;5072992;28;20125;-75
2024/02/09 06:27:01;;;;;;;46.90;29.23;;;;;;;2.97;100.00;92511.56;5073588;28;20048;-75
2024/02/09 06:29:28;;;;;;;42.33;26.15;;;;;;;3.12;100.00;92510.69;5077167;28;20044;-77
2024/02/09 06:31:56;;;;;;;36.28;22.80;;;;;;;3.25;100.00;92528.59;5075243;28;20045;-75
2024/02/09 06:34:23;;;;;;;34.00;19.65;;;;;;;3.36;100.00;92522.25;5070983;28;20409;-75
2024/02/09 06:36:50;;;;;;;28.13;18.52;;;;;;;3.46;100.00;92520.19;5070425;28;20043;-75
2024/02/09 06:39:17;;;;;;;31.77;19.10;;;;;;;3.65;100.00;92522.28;5068643;28;20523;-75
2024/02/09 06:41:44;;;;;;;36.35;21.50;;;;;;;3.78;100.00;92524.13;5068753;28;20052;-75
2024/02/09 06:44:13;;;;;;;35.00;22.00;;;;;;;3.91;100.00;92526.75;5069961;28;20129;-75
2024/02/09 06:46:40;;;;;;;92.85;52.92;;;;;;;3.51;100.00;92531.56;5073308;28;20060;-75
2024/02/09 06:49:07;;;;;;;78.43;45.42;;;;;;;2.98;100.00;92525.81;5067413;28;20127;-75
2024/02/09 06:51:34;;;;;;;70.22;42.22;;;;;;;3.03;100.00;92532.88;5076191;28;20060;-75
2024/02/09 06:54:01;;;;;;;69.03;41.92;;;;;;;3.27;100.00;92541.88;5068519;28;20041;-75
2024/02/09 06:56:28;;;;;;;72.03;43.30;;;;;;;2.88;100.00;92543.06;5070079;28;20488;-74
2024/02/09 06:58:58;;;;;;;92.60;49.50;;;;;;;2.90;100.00;92551.28;5070994;28;20040;-74
2024/02/09 07:01:26;;;;;;;91.05;54.95;;;;;;;3.05;100.00;92546.94;5071985;28;20071;-74
2024/02/09 07:03:54;;;;;;;80.15;47.75;;;;;;;3.21;100.00;92543.38;5073521;28;20043;-75
2024/02/09 07:06:22;;;;;;;130.80;76.00;;;;;;;2.91;100.00;92547.78;5078958;28;20041;-74
2024/02/09 07:08:52;;;;;;;106.55;57.83;;;;;;;3.10;100.00;92540.56;5070209;28;20056;-74
2024/02/09 07:11:21;;;;;;;67.35;41.33;;;;;;;3.06;100.00;92545.97;5077404;28;20828;-74
2024/02/09 07:13:48;;;;;;;65.20;39.65;;;;;;;3.12;100.00;92543.69;5070914;28;20119;-74
2024/02/09 07:16:15;;;;;;;64.78;37.70;;;;;;;3.23;100.00;92544.97;5071948;28;20044;-75
2024/02/09 07:18:45;;;;;;;65.97;39.53;;;;;;;3.40;100.00;92538.69;5075656;28;20135;-74
2024/02/09 07:21:14;;;;;;;51.60;33.90;;;;;;;3.59;100.00;92529.66;5083562;28;20048;-74
2024/02/09 07:23:41;;;;;;;57.28;35.60;;;;;;;4.01;100.00;92541.69;5073343;28;20059;-74
2024/02/09 07:26:08;;;;;;;55.45;38.33;;;;;;;4.08;100.00;92534.88;5073372;28;20535;-74
2024/02/09 07:28:40;;;;;;;56.35;35.03;;;;;;;3.85;100.00;92520.66;5073863;28;20045;-75
2024/02/09 07:31:08;;;;;;;64.40;39.22;;;;;;;4.17;100.00;92532.97;5077579;28;20178;-74
2024/02/09 07:33:39;;;;;;;70.40;40.58;;;;;;;4.16;100.00;92540.81;5072260;28;20044;-75
2024/02/09 07:36:10;;;;;;;67.55;39.30;;;;;;;4.19;100.00;92533.59;5071066;28;20073;-74
2024/02/09 07:38:37;;;;;;;77.72;46.58;;;;;;;4.70;100.00;92534.22;5077403;28;20044;-74
2024/02/09 07:41:05;;;;;;;88.72;48.75;;;;;;;4.99;100.00;92539.19;5075425;28;20048;-75
2024/02/09 07:43:32;;;;;;;93.63;43.05;;;;;;;5.03;100.00;92525.88;5074118;28;20044;-74
2024/02/09 07:45:59;;;;;;;89.68;41.15;;;;;;;5.14;100.00;92519.44;5077884;28;20053;-74
2024/02/09 07:48:28;;;;;;;68.72;35.78;;;;;;;5.49;100.00;92518.50;5080689;28;20121;-74
2024/02/09 07:50:56;;;;;;;66.75;33.85;;;;;;;5.35;100.00;92512.63;5074480;28;20445;-73
2024/02/09 07:53:24;;;;;;;64.45;33.67;;;;;;;5.59;100.00;92531.66;5073755;28;20055;-72
2024/02/09 07:55:51;;;;;;;57.78;31.92;;;;;;;5.66;98.34;92523.22;5082541;28;20107;-73
2024/02/09 07:58:19;;;;;;;47.22;29.92;;;;;;;5.70;98.26;92522.63;5072231;28;20058;-73
2024/02/09 08:00:46;;;;;;;47.25;27.40;;;;;;;5.83;99.24;92521.84;5071569;28;20128;-73
2024/02/09 08:03:13;;;;;;;49.28;27.95;;;;;;;5.94;97.88;92525.56;5073779;28;20048;-73
2024/02/09 08:05:40;;;;;;;44.20;25.13;;;;;;;5.99;96.79;92520.66;5074561;28;20043;-72
2024/02/09 08:08:10;;;;;;;40.75;23.60;;;;;;;6.21;96.99;92514.56;5069611;28;20051;-73
2024/02/09 08:10:38;;;;;;;41.17;23.25;;;;;;;6.53;96.85;92510.34;5068405;28;20052;-73
2024/02/09 08:13:05;;;;;;;36.00;21.13;;;;;;;6.75;93.56;92509.31;5077234;28;20134;-73
2024/02/09 08:15:33;;;;;;;36.50;18.10;;;;;;;6.97;92.16;92501.31;5072169;28;20058;-73
2024/02/09 08:18:00;;;;;;;46.67;24.35;;;;;;;6.91;93.50;92497.81;5072492;28;20047;-73
2024/02/09 08:20:27;;;;;;;39.80;22.00;;;;;;;7.02;91.99;92504.03;5076815;28;20055;-73
2024/02/09 08:22:54;;;;;;;45.63;25.10;;;;;;;7.20;92.47;92500.81;5082940;28;20051;-73
2024/02/09 08:25:27;;;;;;;59.00;34.15;;;;;;;7.46;90.02;92481.94;5079617;28;20048;-73
2024/02/09 08:27:55;;;;;;;44.70;28.08;;;;;;;7.68;89.14;92488.50;5073960;28;20454;-73
2024/02/09 08:30:30;;;;;;;40.65;22.90;;;;;;;8.05;88.93;92475.75;5076211;28;20049;-73
2024/02/09 08:32:58;;;;;;;35.53;19.65;;;;;;;8.05;86.05;92475.75;5074957;28;20140;-73
2024/02/09 08:35:26;;;;;;;35.08;18.08;;;;;;;8.22;87.52;92416.34;5072626;28;20090;-74
2024/02/09 08:38:00;;;;;;;37.72;20.63;;;;;;;9.00;84.79;92455.00;5069574;28;20054;-73
2024/02/09 08:40:27;;;;;;;48.35;22.67;;;;;;;9.62;81.79;92468.47;5072570;28;20044;-73
2024/02/09 08:42:56;;;;;;;10.75;3.88;;;;;;;9.66;74.59;92402.94;5069227;28;20140;-73
2024/02/09 08:45:23;;;;;;;7.13;3.35;;;;;;;10.77;70.88;92474.19;5071368;28;20110;-74
2024/02/09 08:47:53;;;;;;;7.97;4.13;;;;;;;11.18;68.88;92479.28;5071852;28;20106;-74
2024/02/09 08:50:20;;;;;;;6.28;3.22;;;;;;;11.49;67.05;92469.50;5074092;28;20413;-74
2024/02/09 08:52:48;;;;;;;7.25;3.83;;;;;;;11.49;64.90;92429.13;5079553;28;20048;-74
2024/02/09 08:55:15;;;;;;;10.70;2.85;;;;;;;11.85;64.44;92443.53;5072799;28;20076;-74
2024/02/09 08:57:43;;;;;;;9.43;3.50;;;;;;;12.43;62.65;92487.03;5081080;28;20040;-74
2024/02/09 09:00:15;;;;;;;6.78;3.70;;;;;;;12.68;62.13;92494.28;5075180;28;20408;-74
2024/02/09 09:02:45;;;;;;;9.20;3.05;;;;;;;12.76;61.24;92462.19;5069657;28;20378;-74
2024/02/09 09:05:15;;;;;;;9.90;3.97;;;;;;;13.19;60.28;92485.53;5084315;28;20090;-74
2024/02/09 09:07:45;;;;;;;6.30;2.75;;;;;;;13.37;58.82;92496.53;5069721;28;20090;-74
2024/02/09 09:10:15;;;;;;;6.50;2.80;;;;;;;13.22;57.89;92437.88;5068378;28;20056;-74
2024/02/09 09:12:42;;;;;;;5.72;2.58;;;;;;;13.63;57.27;92469.19;5071795;28;20524;-74
2024/02/09 09:15:11;;;;;;;5.70;3.00;;;;;;;13.76;56.46;92459.47;5071211;28;20050;-74
2024/02/09 09:17:43;;;;;;;8.80;3.38;;;;;;;13.69;55.49;92420.97;5070708;28;20041;-74
2024/02/09 09:20:14;;;;;;;6.45;3.13;;;;;;;14.34;55.03;92487.19;5070591;28;20073;-74
2024/02/09 09:22:42;;;;;;;6.60;2.90;;;;;;;13.91;54.15;92417.50;5068777;28;20048;-74
2024/02/09 09:25:09;;;;;;;9.85;3.20;;;;;;;13.98;53.71;92420.63;5070946;28;20048;-74
2024/02/09 09:27:38;;;;;;;8.43;3.13;;;;;;;13.97;52.89;92426.03;5070406;28;20561;-74
2024/02/09 09:30:07;;;;;;;11.85;4.32;;;;;;;14.24;53.18;92500.84;5068445;28;20899;-74
2024/02/09 09:32:40;;;;;;;7.18;3.15;;;;;;;13.87;52.82;92455.16;5069213;28;20123;-74
2024/02/09 09:35:08;;;;;;;8.93;3.08;;;;;;;14.14;54.15;92480.91;5069280;28;20140;-74
2024/02/09 09:37:36;;;;;;;8.68;3.05;;;;;;;14.08;54.51;92445.75;5074312;28;20147;-74
2024/02/09 09:40:08;;;;;;;5.55;2.47;;;;;;;14.29;53.35;92471.66;5068622;28;20496;-75
2024/02/09 09:42:35;;;;;;;8.50;3.22;;;;;;;14.40;53.66;92475.09;5074872;28;20049;-75
2024/02/09 09:45:07;;;;;;;5.40;2.97;;;;;;;14.53;53.56;92461.69;5071489;28;20139;-74
2024/02/09 09:47:35;;;;;;;7.38;3.08;;;;;;;14.27;52.14;92453.81;5067730;28;20043;-74
2024/02/09 09:50:08;;;;;;;10.98;3.67;;;;;;;14.27;53.18;92453.06;5076288;28;20503;-74
2024/02/09 09:52:37;;;;;;;7.88;3.20;;;;;;;14.53;52.64;92464.28;5071244;28;20054;-74
2024/02/09 09:55:04;;;;;;;12.07;3.15;;;;;;;14.41;52.49;92474.81;5068715;28;20048;-74
2024/02/09 09:57:32;;;;;;;7.13;3.17;;;;;;;14.33;52.86;92471.94;5068294;28;20508;-76
2024/02/09 10:00:00;;;;;;;16.63;4.28;;;;;;;14.41;53.07;92459.31;5078573;28;20055;-75
2024/02/09 10:02:27;;;;;;;9.52;3.15;;;;;;;14.41;53.05;92469.66;5067854;28;20048;-76
2024/02/09 10:04:55;;;;;;;9.07;3.10;;;;;;;14.75;52.21;92460.00;5069520;28;20048;-75
2024/02/09 10:07:23;;;;;;;7.18;3.00;;;;;;;14.89;51.26;92466.25;5068516;28;21249;-75
2024/02/09 10:09:51;;;;;;;8.45;3.60;;;;;;;14.87;51.54;92473.50;5068515;28;20048;-75
2024/02/09 10:12:22;;;;;;;8.88;3.05;;;;;;;14.89;51.87;92457.69;5076224;28;20083;-75
2024/02/09 10:14:49;;;;;;;10.75;3.10;;;;;;;14.95;51.27;92452.28;5075660;28;20139;-75
2024/02/09 10:17:16;;;;;;;5.80;2.60;;;;;;;15.11;50.83;92452.34;5073359;28;20407;-75
2024/02/09 10:19:43;;;;;;;5.43;2.97;;;;;;;15.05;49.76;92438.59;5077067;28;20048;-76
2024/02/09 10:22:10;;;;;;;9.57;3.13;;;;;;;15.14;50.24;92441.47;5070279;28;20048;-75
2024/02/09 10:24:41;;;;;;;4.78;2.70;;;;;;;15.12;50.29;92428.00;5073368;28;20044;-75
2024/02/09 10:27:10;;;;;;;6.57;3.03;;;;;;;15.16;49.56;92421.31;5073857;28;20132;-75
2024/02/09 10:29:38;;;;;;;9.43;3.47;;;;;;;15.18;49.84;92418.47;5078701;28;20048;-75
2024/02/09 10:32:07;;;;;;;7.28;3.00;;;;;;;14.91;50.02;92416.88;5073593;28;20054;-75
2024/02/09 10:34:35;;;;;;;8.77;3.92;;;;;;;15.15;49.30;92424.13;5074263;28;20071;-75
2024/02/09 10:37:03;;;;;;;9.52;3.88;;;;;;;15.31;49.11;92406.81;5073811;28;20055;-76
2024/02/09 10:39:30;;;;;;;10.80;2.92;;;;;;;15.44;48.71;92401.13;5074997;28;20062;-76
2024/02/09 10:42:02;;;;;;;6.82;2.95;;;;;;;15.49;49.19;92410.69;5074316;28;20051;-76
2024/02/09 10:44:32;;;;;;;7.82;2.90;;;;;;;15.74;48.47;92403.97;5072992;28;20044;-75
2024/02/09 10:47:00;;;;;;;6.50;3.50;;;;;;;15.67;48.83;92380.91;5073742;28;20060;-76
2024/02/09 10:49:30;;;;;;;8.95;2.85;;;;;;;15.82;47.84;92390.47;5073691;28;20049;-76
2024/02/09 10:52:04;;;;;;;10.10;3.03;;;;;;;15.53;48.85;92369.53;5079799;28;20102;-76
2024/02/09 10:54:37;;;;;;;4.43;2.35;;;;;;;15.48;47.06;92371.13;5071468;28;20079;-76
2024/02/09 10:57:06;;;;;;;5.38;2.47;;;;;;;15.36;47.18;92345.50;5079824;28;20055;-76
2024/02/09 10:59:36;;;;;;;5.88;3.30;;;;;;;15.37;48.27;92359.22;5075485;28;20055;-76
2024/02/09 11:02:05;;;;;;;10.43;3.13;;;;;;;15.52;48.11;92363.59;5067979;28;20410;-75
2024/02/09 11:04:33;;;;;;;16.90;4.15;;;;;;;15.41;47.74;92351.72;5075034;28;20055;-76
2024/02/09 11:07:01;;;;;;;5.65;2.50;;;;;;;15.43;48.43;92342.66;5072109;28;20056;-75
2024/02/09 11:09:29;;;;;;;5.75;2.50;;;;;;;15.14;48.49;92345.75;5073414;28;20119;-76
2024/02/09 11:12:00;;;;;;;5.80;3.10;;;;;;;15.60;47.66;92344.94;5072232;28;20070;-76
2024/02/09 11:14:35;;;;;;;6.72;3.22;;;;;;;15.66;47.67;92319.03;5071273;28;20044;-76
2024/02/09 11:17:06;;;;;;;4.47;1.92;;;;;;;15.40;47.55;92329.44;5072026;28;20535;-75
2024/02/09 11:19:37;;;;;;;8.65;3.08;;;;;;;15.77;47.67;92320.56;5077796;28;20048;-76
2024/02/09 11:22:05;;;;;;;10.43;5.20;;;;;;;15.96;47.30;92314.84;5073797;28;20056;-76
2024/02/09 11:24:32;;;;;;;7.82;3.53;;;;;;;16.23;46.78;92317.06;5072001;28;20044;-76
2024/02/09 11:27:00;;;;;;;7.80;2.58;;;;;;;16.02;45.92;92316.38;5074261;28;20052;-76
2024/02/09 11:29:27;;;;;;;8.27;4.05;;;;;;;15.93;46.12;92316.16;5072488;28;20044;-76
2024/02/09 11:31:57;;;;;;;8.10;2.70;;;;;;;15.86;46.07;92325.97;5074647;28;20157;-76
2024/02/09 11:34:26;;;;;;;5.50;2.42;;;;;;;15.90;45.52;92332.97;5075216;28;20052;-76
2024/02/09 11:36:58;;;;;;;5.80;1.80;;;;;;;15.71;46.41;92324.22;5070733;28;20047;-76
2024/02/09 11:39:26;;;;;;;5.93;2.50;;;;;;;16.05;45.64;92317.66;5075254;28;20398;-76
2024/02/09 11:41:53;;;;;;;4.93;2.20;;;;;;;15.70;46.26;92323.41;5076493;28;20051;-76
2024/02/09 11:44:21;;;;;;;5.90;2.35;;;;;;;15.59;46.14;92322.69;5075031;28;20040;-75
2024/02/09 11:46:49;;;;;;;12.93;3.10;;;;;;;16.20;45.55;92312.41;5071629;28;20046;-76
2024/02/09 11:49:17;;;;;;;6.05;2.70;;;;;;;16.17;45.39;92313.72;5073877;28;20048;-76
2024/02/09 11:51:44;;;;;;;4.65;2.40;;;;;;;16.11;45.07;92317.38;5072798;28;20054;-76
2024/02/09 11:54:12;;;;;;;4.05;2.25;;;;;;;16.01;45.56;92310.41;5070688;28;20047;-76
2024/02/09 11:56:40;;;;;;;6.53;2.70;;;;;;;16.24;45.39;92300.47;5075113;28;20078;-76
2024/02/09 11:59:09;;;;;;;6.20;3.20;;;;;;;16.26;45.42;92302.81;5076821;28;20978;-75
2024/02/09 12:01:36;;;;;;;5.60;2.80;;;;;;;16.29;45.14;92284.13;5075464;28;20074;-75
2024/02/09 12:04:03;;;;;;;5.40;2.03;;;;;;;16.38;43.88;92295.47;5070982;28;20052;-75
2024/02/09 12:06:31;;;;;;;8.38;2.63;;;;;;;16.36;43.84;92297.56;5075149;28;20055;-75
2024/02/09 12:08:58;;;;;;;7.65;2.88;;;;;;;16.49;44.07;92298.00;5068920;28;20508;-75
2024/02/09 12:11:25;;;;;;;7.43;2.38;;;;;;;16.62;43.34;92294.03;5069699;28;20052;-75
2024/02/09 12:13:52;;;;;;;5.18;2.13;;;;;;;16.67;43.68;92279.22;5070830;28;20504;-75
2024/02/09 12:16:20;;;;;;;12.43;3.10;;;;;;;16.36;43.07;92256.09;5069946;28;20044;-77
2024/02/09 12:18:54;;;;;;;8.10;2.35;;;;;;;16.36;43.64;92268.28;5070448;28;20082;-75
2024/02/09 12:21:21;;;;;;;13.75;4.78;;;;;;;16.85;43.39;92276.25;5073569;28;20044;-75
2024/02/09 12:23:50;;;;;;;7.53;2.80;;;;;;;16.60;42.85;92262.41;5071041;28;20053;-75
2024/02/09 12:26:18;;;;;;;4.80;1.70;;;;;;;16.70;43.20;92275.31;5074705;28;20040;-75
2024/02/09 12:28:45;;;;;;;6.65;2.08;;;;;;;16.75;43.51;92266.72;5071111;28;20044;-75
2024/02/09 12:31:16;;;;;;;4.75;1.77;;;;;;;16.51;43.52;92270.78;5071518;28;20063;-76
2024/02/09 12:33:43;;;;;;;7.35;3.30;;;;;;;16.32;44.46;92281.00;5071139;28;20781;-75
2024/02/09 12:36:11;;;;;;;5.00;1.90;;;;;;;16.27;43.19;92266.25;5071164;28;20052;-75
2024/02/09 12:38:40;;;;;;;16.00;7.63;;;;;;;16.55;43.17;92276.19;5072939;28;20436;-75
2024/02/09 12:41:09;;;;;;;10.35;2.88;;;;;;;16.65;43.49;92273.53;5073732;28;20052;-75
2024/02/09 12:43:37;;;;;;;8.40;3.05;;;;;;;16.73;42.77;92281.78;5075849;28;20798;-75
2024/02/09 12:46:07;;;;;;;6.63;3.85;;;;;;;16.61;42.53;92280.28;5071085;28;20420;-75
2024/02/09 12:48:36;;;;;;;104.03;46.42;;;;;;;16.52;42.76;92271.56;5068896;28;20072;-75
2024/02/09 12:51:04;;;;;;;166.75;66.00;;;;;;;16.60;42.70;92277.97;5072282;28;20060;-75
2024/02/09 12:53:31;;;;;;;46.30;19.33;;;;;;;16.65;42.62;92277.94;5074635;28;20048;-75
2024/02/09 12:55:58;;;;;;;116.05;46.05;;;;;;;16.61;41.98;92272.50;5070845;28;20048;-75
2024/02/09 12:58:27;;;;;;;202.18;75.63;;;;;;;16.60;42.08;92272.78;5069478;28;20044;-75
2024/02/09 13:00:54;;;;;;;42.10;18.10;;;;;;;16.67;42.61;92261.06;5070822;28;20048;-75
2024/02/09 13:03:22;;;;;;;22.65;11.15;;;;;;;16.80;42.57;92269.28;5070752;28;20051;-75
2024/02/09 13:05:49;;;;;;;20.38;8.68;;;;;;;16.42;42.66;92280.16;5071032;28;20489;-76
2024/02/09 13:08:16;;;;;;;521.35;249.77;;;;;;;16.70;42.87;92267.53;5070741;28;20642;-75
2024/02/09 13:10:43;;;;;;;109.00;45.78;;;;;;;16.36;42.07;92271.66;5069300;28;20597;-75
2024/02/09 13:13:11;;;;;;;51.25;25.48;;;;;;;16.66;42.41;92271.72;5070880;28;20533;-75
2024/02/09 13:15:41;;;;;;;142.20;75.95;;;;;;;16.74;42.04;92271.13;5068441;28;20060;-75
2024/02/09 13:18:10;;;;;;;27.00;15.45;;;;;;;16.84;41.74;92272.88;5069162;28;20056;-75